Time;durP1;ratioP1;P1;durP2;ratioP2;P2;SDS_P1;SDS_P2;PMS_P1;PMS_P2;Temp;Humidity;BMP_temperature;BMP_pressure;BME280_temperature;BME280_humidity;BME280_pressure;Samples;Min_cycle;Max_cycle;Signal;HPM_P1;HPM_P2
2021/03/01 05:59:09;;;;;;;;;;;;;;;2.49;100.00;99039.02;1748438;75;943633;-62
2021/03/01 06:01:37;;;;;;;;;;;;;;;2.52;100.00;99048.57;1726679;81;20611;-61
2021/03/01 06:04:07;;;;;;;;;;;;;;;2.55;100.00;99043.07;1735458;81;20228;-61
2021/03/01 06:06:35;;;;;;;;;;;;;;;2.60;100.00;99049.06;1732213;80;20598;-62
2021/03/01 06:09:04;;;;;;;;;;;;;;;2.61;100.00;99042.91;1732798;81;20604;-61
2021/03/01 06:11:31;;;;;;;;;;;;;;;2.63;100.00;99050.05;1719474;80;21962;-62
2021/03/01 06:14:04;;;;;;;;;;;;;;;2.61;100.00;99045.02;1718628;81;20557;-63
2021/03/01 06:16:32;;;;;;;;;;;;;;;2.64;100.00;99054.27;1719535;82;20465;-61
2021/03/01 06:19:00;;;;;;;;;;;;;;;2.63;100.00;99069.03;1717032;81;20393;-62
2021/03/01 06:21:29;;;;;;;;;;;;;;;2.64;100.00;99066.77;1720552;81;20614;-64
2021/03/01 06:23:56;;;;;;;;;;;;;;;2.64;100.00;99064.66;1725373;82;21926;-64
2021/03/01 06:26:31;;;;;;;;;;;;;;;2.62;100.00;99068.70;1735451;80;20610;-64
2021/03/01 06:29:07;;;;;;;;;;;;;;;2.61;100.00;99076.64;1753760;79;20475;-65
2021/03/01 06:31:42;;;;;;;;;;;;;;;2.60;100.00;99073.23;1728619;81;20213;-66
2021/03/01 06:34:27;;;;;;;;;;;;;;;2.58;100.00;99075.20;1701171;83;20696;-67
2021/03/01 06:37:06;;;;;;;;;;;;;;;2.60;100.00;99077.13;1697512;83;21918;-69
2021/03/01 06:39:40;;;;;;;;;;;;;;;2.60;100.00;99084.91;1711010;82;20689;-65
2021/03/01 06:42:23;;;;;;;;;;;;;;;2.59;100.00;99091.58;1724857;81;20485;-64
2021/03/01 06:45:03;;;;;;;;;;;;;;;2.55;100.00;99092.38;1724463;81;20473;-66
2021/03/01 06:47:50;;;;;;;;;;;;;;;2.54;100.00;99098.53;1735305;81;20867;-66
2021/03/01 06:50:32;;;;;;;;;;;;;;;2.53;100.00;99100.80;1721325;80;22185;-71
2021/03/01 06:53:02;;;;;;;;;;;;;;;2.55;100.00;99107.13;1719631;82;20748;-67
2021/03/01 06:55:30;;;;;;;;;;;;;;;2.58;100.00;99112.02;1718047;81;20200;-66
2021/03/01 06:57:58;;;;;;;;;;;;;;;2.61;100.00;99120.76;1746109;79;20716;-67
2021/03/01 07:00:27;;;;;;;;;;;;;;;2.62;100.00;99118.49;1693390;82;21039;-68
2021/03/01 07:02:54;;;;;;;;;;;;;;;2.65;100.00;99122.08;1722087;81;22271;-64
2021/03/01 07:05:23;;;;;;;;;;;;;;;2.68;100.00;99130.83;1725843;81;20544;-67
2021/03/01 07:07:54;;;;;;;;;;;;;;;2.72;100.00;99128.25;1726884;81;20436;-67
2021/03/01 07:10:24;;;;;;;;;;;;;;;2.73;100.00;99125.50;1741096;81;20478;-65
2021/03/01 07:12:52;;;;;;;;;;;;;;;2.78;100.00;99126.79;1719661;82;20598;-68
2021/03/01 07:15:20;;;;;;;;;;;;;;;2.81;100.00;99133.75;1725291;81;22217;-65
2021/03/01 07:17:48;;;;;;;;;;;;;;;2.83;100.00;99131.00;1723910;81;20610;-67
2021/03/01 07:20:16;;;;;;;;;;;;;;;2.84;100.00;99135.23;1724417;81;20392;-61
2021/03/01 07:22:44;;;;;;;;;;;;;;;2.87;100.00;99140.92;1731697;80;20501;-66
2021/03/01 07:25:13;;;;;;;;;;;;;;;2.91;100.00;99141.39;1724073;80;21002;-70
2021/03/01 07:27:41;;;;;;;;;;;;;;;2.93;100.00;99144.65;1723654;82;22373;-70
2021/03/01 07:30:11;;;;;;;;;;;;;;;2.96;100.00;99142.52;1713558;81;20289;-66
2021/03/01 07:32:39;;;;;;;;;;;;;;;2.97;100.00;99148.05;1720981;81;20244;-66
2021/03/01 07:35:09;;;;;;;;;;;;;;;3.00;100.00;99144.33;1719614;82;20150;-68
2021/03/01 07:37:37;;;;;;;;;;;;;;;3.03;100.00;99149.18;1727143;81;20616;-68
2021/03/01 07:40:07;;;;;;;;;;;;;;;3.07;100.00;99155.69;1722861;81;21682;-66
2021/03/01 07:42:38;;;;;;;;;;;;;;;3.12;100.00;99146.91;1732346;81;20474;-67
2021/03/01 07:45:07;;;;;;;;;;;;;;;3.16;100.00;99151.31;1728208;80;20233;-66
2021/03/01 07:47:34;;;;;;;;;;;;;;;3.20;100.00;99157.80;1727190;81;20581;-66
2021/03/01 07:50:04;;;;;;;;;;;;;;;3.23;100.00;99157.48;1724531;82;21306;-64
2021/03/01 07:52:33;;;;;;;;;;;;;;;3.27;100.00;99156.98;1729327;81;22095;-65
2021/03/01 07:55:05;;;;;;;;;;;;;;;3.29;100.00;99157.63;1719235;81;20593;-67
2021/03/01 07:57:34;;;;;;;;;;;;;;;3.34;100.00;99166.23;1721945;80;20801;-69
2021/03/01 08:00:25;;;;;;;;;;;;;;;3.39;100.00;99164.75;1721962;81;20625;-68
2021/03/01 08:02:53;;;;;;;;;;;;;;;3.40;100.00;99162.97;1718204;82;20537;-64
2021/03/01 08:05:32;;;;;;;;;;;;;;;3.41;100.00;99170.61;1719552;80;22327;-69
2021/03/01 08:08:01;;;;;;;;;;;;;;;3.42;100.00;99177.43;1709463;81;20556;-65
2021/03/01 08:10:33;;;;;;;;;;;;;;;3.40;100.00;99178.56;1729226;81;20723;-66
2021/03/01 08:13:07;;;;;;;;;;;;;;;3.39;100.00;99181.64;1721671;81;20636;-64
2021/03/01 08:15:43;;;;;;;;;;;;;;;3.39;100.00;99186.03;1721680;81;20779;-63
2021/03/01 08:18:12;;;;;;;;;;;;;;;3.41;100.00;99185.39;1711277;82;21719;-62
2021/03/01 08:20:50;;;;;;;;;;;;;;;3.41;100.00;99187.98;1716994;82;20568;-65
2021/03/01 08:23:32;;;;;;;;;;;;;;;3.42;100.00;99190.42;1835159;77;20521;-65
2021/03/01 08:26:00;;;;;;;;;;;;;;;3.38;100.00;99192.23;1784972;78;20847;-62
2021/03/01 08:28:32;;;;;;;;;;;;;;;3.39;100.00;99201.13;1792330;79;21876;-60
2021/03/01 08:31:19;;;;;;;;;;;;;;;3.37;100.00;99205.70;1793257;79;20868;-64
2021/03/01 08:33:47;;;;;;;;;;;;;;;3.35;100.00;99209.43;1777657;78;20505;-65
2021/03/01 08:36:20;;;;;;;;;;;;;;;3.34;100.00;99214.30;1798487;78;20492;-66
2021/03/01 08:38:49;;;;;;;;;;;;;;;3.34;100.00;99217.71;1789237;78;20781;-66
2021/03/01 08:41:18;;;;;;;;;;;;;;;3.34;100.00;99213.81;1793545;78;22046;-64
2021/03/01 08:43:48;;;;;;;;;;;;;;;3.33;100.00;99223.06;1795904;78;20560;-64
2021/03/01 08:46:18;;;;;;;;;;;;;;;3.35;100.00;99224.53;1793847;79;20618;-63
2021/03/01 08:48:51;;;;;;;;;;;;;;;3.40;100.00;99230.53;1793452;78;20472;-65
2021/03/01 08:51:21;;;;;;;;;;;;;;;3.42;100.00;99231.19;1798156;78;20769;-58
2021/03/01 08:53:52;;;;;;;;;;;;;;;3.44;100.00;99234.45;1793357;78;21932;-61
2021/03/01 08:56:21;;;;;;;;;;;;;;;3.44;100.00;99231.84;1796783;78;20579;-66
2021/03/01 08:58:49;;;;;;;;;;;;;;;3.47;100.00;99234.10;1794652;78;20645;-66
2021/03/01 09:01:17;;;;;;;;;;;;;;;3.52;100.00;99238.34;1788082;78;20543;-66
2021/03/01 09:03:46;;;;;;;;;;;;;;;3.51;100.00;99244.03;1796337;78;20614;-66
2021/03/01 09:06:20;;;;;;;;;;;;;;;3.51;100.00;99244.52;1782594;78;21865;-63
2021/03/01 09:08:55;;;;;;;;;;;;;;;3.52;100.00;99242.25;1791504;78;20584;-61
2021/03/01 09:11:24;;;;;;;;;;;;;;;3.52;100.00;99250.05;1796261;78;20562;-63
2021/03/01 09:13:53;;;;;;;;;;;;;;;3.51;100.00;99252.31;1792970;78;20475;-61
2021/03/01 09:16:26;;;;;;;;;;;;;;;3.50;100.00;99245.00;1792573;78;20876;-67
2021/03/01 09:19:10;;;;;;;;;;;;;;;3.52;100.00;99251.34;1793605;78;22471;-61
2021/03/01 09:21:40;;;;;;;;;;;;;;;3.54;100.00;99247.59;1788648;78;20472;-61
2021/03/01 09:24:09;;;;;;;;;;;;;;;3.56;100.00;99259.13;1785988;78;20564;-61
2021/03/01 09:26:38;;;;;;;;;;;;;;;3.58;100.00;99257.67;1808762;78;20380;-62
2021/03/01 09:29:09;;;;;;;;;;;;;;;3.58;100.00;99258.97;1793769;78;20824;-63
2021/03/01 09:31:51;;;;;;;;;;;;;;;3.61;100.00;99259.44;1791141;78;21894;-69
2021/03/01 09:34:21;;;;;;;;;;;;;;;3.66;100.00;99268.07;1794454;78;21013;-65
2021/03/01 09:36:51;;;;;;;;;;;;;;;3.72;100.00;99273.42;1795411;78;20591;-63
2021/03/01 09:39:21;;;;;;;;;;;;;;;3.73;100.00;99278.14;1792950;78;20641;-62
2021/03/01 09:41:50;;;;;;;;;;;;;;;3.72;100.00;99277.81;1791670;78;20818;-65
2021/03/01 09:44:25;;;;;;;;;;;;;;;3.71;100.00;99286.09;1782923;78;22060;-67
2021/03/01 09:46:54;;;;;;;;;;;;;;;3.71;100.00;99284.80;1787333;78;20525;-70
2021/03/01 09:49:23;;;;;;;;;;;;;;;3.69;100.00;99286.73;1803531;78;20388;-67
2021/03/01 09:51:51;;;;;;;;;;;;;;;3.66;100.00;99287.57;1787670;78;20395;-62
2021/03/01 09:54:21;;;;;;;;;;;;;;;3.67;100.00;99285.30;1782534;78;20690;-64
2021/03/01 09:56:53;;;;;;;;;;;;;;;3.67;100.00;99291.31;1793844;78;21907;-62
2021/03/01 09:59:37;;;;;;;;;;;;;;;3.70;100.00;99303.16;1802956;78;20476;-63
2021/03/01 10:02:16;;;;;;;;;;;;;;;3.70;100.00;99298.77;1811656;78;20488;-64
2021/03/01 10:04:52;;;;;;;;;;;;;;;3.73;100.00;99306.74;1812541;78;20641;-62
2021/03/01 10:07:23;;;;;;;;;;;;;;;3.78;100.00;99299.26;1806118;78;20604;-63
2021/03/01 10:09:54;;;;;;;;;;;;;;;3.78;100.00;99301.38;1790116;78;21043;-63
2021/03/01 10:12:22;;;;;;;;;;;;;;;3.82;100.00;99305.25;1795137;78;20737;-64
2021/03/01 10:14:57;;;;;;;;;;;;;;;3.86;100.00;99303.97;1789771;78;20487;-63
2021/03/01 10:17:31;;;;;;;;;;;;;;;3.89;99.83;99305.44;1796505;78;20480;-63
2021/03/01 10:20:05;;;;;;;;;;;;;;;3.93;100.00;99310.14;1815706;78;20464;-63
2021/03/01 10:22:53;;;;;;;;;;;;;;;3.93;99.49;99308.03;1806331;78;21950;-67
2021/03/01 10:25:36;;;;;;;;;;;;;;;3.92;99.00;99314.20;1789307;78;20599;-63
2021/03/01 10:28:06;;;;;;;;;;;;;;;3.85;100.00;99303.64;1779545;78;20514;-62
2021/03/01 10:30:34;;;;;;;;;;;;;;;3.81;100.00;99310.16;1779452;78;20507;-66
2021/03/01 10:33:07;;;;;;;;;;;;;;;3.76;100.00;99309.81;1777640;80;20551;-65
2021/03/01 10:35:35;;;;;;;;;;;;;;;3.72;100.00;99314.22;1782859;78;21822;-65
2021/03/01 10:38:06;;;;;;;;;;;;;;;3.69;100.00;99315.83;1792672;78;20490;-63
2021/03/01 10:40:35;;;;;;;;;;;;;;;3.65;100.00;99314.53;1800484;78;20484;-64
2021/03/01 10:43:11;;;;;;;;;;;;;;;3.62;100.00;99311.77;1800063;78;20512;-62
2021/03/01 10:45:43;;;;;;;;;;;;;;;3.61;100.00;99311.92;1786568;78;20500;-67
2021/03/01 10:48:12;;;;;;;;;;;;;;;3.58;100.00;99305.77;1783617;78;21891;-67
2021/03/01 10:50:41;;;;;;;;;;;;;;;3.60;100.00;99308.53;1787612;78;20481;-63
2021/03/01 10:53:11;;;;;;;;;;;;;;;3.63;100.00;99301.70;1802805;78;20485;-60
2021/03/01 10:55:39;;;;;;;;;;;;;;;3.72;100.00;99299.42;1789916;78;20498;-63
2021/03/01 10:58:08;;;;;;;;;;;;;;;3.85;100.00;99308.03;1796100;78;20651;-64
2021/03/01 11:00:37;;;;;;;;;;;;;;;3.97;100.00;99311.09;1796281;78;21752;-62
2021/03/01 11:03:07;;;;;;;;;;;;;;;4.05;100.00;99308.48;1783415;78;20481;-60
2021/03/01 11:05:36;;;;;;;;;;;;;;;4.13;97.90;99303.28;1784078;78;20427;-62
2021/03/01 11:08:06;;;;;;;;;;;;;;;4.24;100.00;99305.06;1784634;78;20494;-62
2021/03/01 11:10:33;;;;;;;;;;;;;;;4.35;98.76;99304.37;1783144;78;20682;-60
2021/03/01 11:13:01;;;;;;;;;;;;;;;4.44;95.69;99305.48;1729325;80;21999;-63
2021/03/01 11:15:29;;;;;;;;;;;;;;;4.50;92.65;99306.61;1714788;82;20545;-59
2021/03/01 11:17:57;;;;;;;;;;;;;;;4.50;90.18;99294.89;1739065;80;20406;-63
2021/03/01 11:20:26;;;;;;;;;;;;;;;4.54;92.57;99291.77;1739744;80;20485;-63
2021/03/01 11:22:54;;;;;;;;;;;;;;;4.58;91.06;99300.07;1762896;80;20789;-62
2021/03/01 11:25:22;;;;;;;;;;;;;;;4.57;92.11;99302.34;1768557;80;21810;-61
2021/03/01 11:27:50;;;;;;;;;;;;;;;4.59;92.98;99304.30;1743464;80;20567;-59
2021/03/01 11:30:19;;;;;;;;;;;;;;;4.62;91.86;99307.37;1743867;80;20517;-65
2021/03/01 11:32:47;;;;;;;;;;;;;;;4.63;91.68;99304.28;1715861;82;20757;-65
2021/03/01 11:35:15;;;;;;;;;;;;;;;4.66;90.12;99302.66;1731513;81;20562;-62
2021/03/01 11:37:44;;;;;;;;;;;;;;;4.67;90.37;99303.79;1742583;80;21969;-64
2021/03/01 11:40:13;;;;;;;;;;;;;;;4.69;90.41;99300.99;1760537;80;20532;-65
2021/03/01 11:42:42;;;;;;;;;;;;;;;4.69;89.46;99304.90;1739976;81;20499;-61
2021/03/01 11:45:10;;;;;;;;;;;;;;;4.67;89.11;99304.28;1747963;80;20518;-60
2021/03/01 11:47:38;;;;;;;;;;;;;;;4.62;88.05;99304.77;1723043;80;20625;-63
2021/03/01 11:50:08;;;;;;;;;;;;;;;4.61;88.22;99306.26;1723157;80;20849;-61
2021/03/01 11:52:36;;;;;;;;;;;;;;;4.58;89.27;99303.48;1749716;80;20863;-62
2021/03/01 11:55:05;;;;;;;;;;;;;;;4.59;90.39;99305.12;1748059;80;20501;-62
2021/03/01 11:57:34;;;;;;;;;;;;;;;4.60;88.15;99313.25;1741424;80;20490;-61
2021/03/01 12:00:04;;;;;;;;;;;;;;;4.57;88.21;99301.86;1734936;81;20556;-61
2021/03/01 12:02:34;;;;;;;;;;;;;;;4.53;89.65;99306.28;1724201;81;21824;-60
2021/03/01 12:05:03;;;;;;;;;;;;;;;4.54;90.35;99310.00;1730359;81;20734;-60
2021/03/01 12:07:31;;;;;;;;;;;;;;;4.53;87.68;99308.89;1731213;81;20216;-61
2021/03/01 12:09:58;;;;;;;;;;;;;;;4.53;86.43;99300.59;1729438;81;20657;-60
2021/03/01 12:12:26;;;;;;;;;;;;;;;4.51;86.80;99303.84;1739084;81;20643;-61
2021/03/01 12:14:55;;;;;;;;;;;;;;;4.53;88.32;99304.49;1741506;81;21908;-64
2021/03/01 12:17:23;;;;;;;;;;;;;;;4.55;89.54;99304.30;1735242;81;20485;-65
2021/03/01 12:19:52;;;;;;;;;;;;;;;4.59;89.67;99310.81;1735691;81;20573;-62
2021/03/01 12:22:20;;;;;;;;;;;;;;;4.60;89.14;99302.03;1731264;81;20489;-62
2021/03/01 12:24:47;;;;;;;;;;;;;;;4.60;88.44;99308.05;1725953;81;20616;-62
2021/03/01 12:27:16;;;;;;;;;;;;;;;4.57;88.28;99317.48;1722305;82;21924;-60
2021/03/01 12:29:43;;;;;;;;;;;;;;;4.54;87.25;99313.91;1723341;82;20475;-60
2021/03/01 12:32:11;;;;;;;;;;;;;;;4.49;86.29;99317.51;1719566;82;20411;-64
2021/03/01 12:34:41;;;;;;;;;;;;;;;4.47;87.29;99322.06;1724997;82;20483;-61
2021/03/01 12:37:09;;;;;;;;;;;;;;;4.47;87.47;99324.66;1725063;82;20612;-60
2021/03/01 12:39:37;;;;;;;;;;;;;;;4.48;88.09;99326.78;1721415;82;21912;-63
2021/03/01 12:42:06;;;;;;;;;;;;;;;4.49;88.09;99324.50;1720362;81;20526;-65
2021/03/01 12:44:34;;;;;;;;;;;;;;;4.50;87.98;99333.94;1724178;82;20573;-65
2021/03/01 12:47:03;;;;;;;;;;;;;;;4.50;87.84;99324.83;1723715;82;20346;-60
2021/03/01 12:49:32;;;;;;;;;;;;;;;4.51;88.04;99325.97;1724113;82;20669;-59
2021/03/01 12:52:00;;;;;;;;;;;;;;;4.52;88.18;99321.09;1721955;82;22100;-60
2021/03/01 12:54:28;;;;;;;;;;;;;;;4.54;88.03;99322.23;1724190;82;20530;-61
2021/03/01 12:56:58;;;;;;;;;;;;;;;4.57;88.37;99324.48;1724114;82;20597;-63
2021/03/01 12:59:26;;;;;;;;;;;;;;;4.59;87.27;99327.25;1722651;82;20491;-62
2021/03/01 13:01:55;;;;;;;;;;;;;;;4.58;87.10;99326.92;1722834;82;20699;-62
2021/03/01 13:04:23;;;;;;;;;;;;;;;4.58;86.50;99320.91;1721201;82;21790;-64
2021/03/01 13:06:52;;;;;;;;;;;;;;;4.61;87.91;99321.36;1721262;82;20479;-62
2021/03/01 13:09:20;;;;;;;;;;;;;;;4.67;87.93;99322.51;1709447;82;20490;-64
2021/03/01 13:11:50;;;;;;;;;;;;;;;4.74;86.75;99326.55;1717547;82;20590;-65
2021/03/01 13:14:18;;;;;;;;;;;;;;;4.78;87.06;99327.33;1721761;82;20458;-64
2021/03/01 13:16:46;;;;;;;;;;;;;;;4.82;86.68;99329.94;1720915;82;21902;-62
2021/03/01 13:19:15;;;;;;;;;;;;;;;4.83;87.04;99332.84;1722596;82;20590;-63
2021/03/01 13:21:44;;;;;;;;;;;;;;;4.82;86.29;99335.15;1717722;82;20595;-63
2021/03/01 13:24:12;;;;;;;;;;;;;;;4.79;86.49;99335.47;1719557;82;20507;-60
2021/03/01 13:26:40;;;;;;;;;;;;;;;4.78;86.93;99342.14;1710646;82;21041;-63
2021/03/01 13:29:21;;;;;;;;;;;;;;;4.75;87.00;99343.80;1744519;80;20564;-62
2021/03/01 13:31:50;;;;;;;;;;;;;;;4.69;84.55;99341.36;1745660;80;20590;-59
2021/03/01 13:34:20;;;;;;;;;;;;;;;4.66;85.32;99350.83;1712962;82;20487;-60
2021/03/01 13:36:48;;;;;;;;;;;;;;;4.64;86.57;99348.38;1739213;80;20609;-62
2021/03/01 13:39:16;;;;;;;;;;;;;;;4.66;86.96;99351.64;1733836;80;20812;-61
2021/03/01 13:41:44;;;;;;;;;;;;;;;4.67;87.34;99348.55;1735219;80;21890;-62
2021/03/01 13:44:12;;;;;;;;;;;;;;;4.69;86.93;99351.28;1728135;81;21445;-61
2021/03/01 13:46:40;;;;;;;;;;;;;;;4.73;87.17;99349.17;1726739;81;20489;-64
2021/03/01 13:49:08;;;;;;;;;;;;;;;4.74;83.71;99347.38;1728359;81;20485;-62
2021/03/01 13:51:36;;;;;;;;;;;;;;;4.71;83.96;99345.43;1730290;81;20889;-62
2021/03/01 13:54:06;;;;;;;;;;;;;;;4.73;84.84;99348.36;1733745;81;21911;-62
2021/03/01 13:56:36;;;;;;;;;;;;;;;4.73;84.40;99347.06;1728496;80;20404;-64
2021/03/01 13:59:05;;;;;;;;;;;;;;;4.73;84.28;99346.57;1732270;81;20537;-60
2021/03/01 14:01:33;;;;;;;;;;;;;;;4.71;84.20;99343.31;1732378;81;20401;-62
2021/03/01 14:04:01;;;;;;;;;;;;;;;4.71;85.12;99344.13;1733368;81;20611;-62
2021/03/01 14:06:29;;;;;;;;;;;;;;;4.70;85.35;99339.08;1728574;81;21923;-62
2021/03/01 14:08:57;;;;;;;;;;;;;;;4.70;85.58;99340.38;1729229;81;20525;-63
2021/03/01 14:11:25;;;;;;;;;;;;;;;4.69;85.99;99338.75;1731582;81;20479;-65
2021/03/01 14:13:53;;;;;;;;;;;;;;;4.69;86.50;99343.48;1730770;81;20750;-61
2021/03/01 14:16:21;;;;;;;;;;;;;;;4.68;86.83;99339.24;1735237;81;20611;-59
2021/03/01 14:18:49;;;;;;;;;;;;;;;4.66;86.86;99353.43;1731734;81;21910;-61
2021/03/01 14:21:17;;;;;;;;;;;;;;;4.63;83.58;99339.42;1727042;81;20485;-60
2021/03/01 14:23:45;;;;;;;;;;;;;;;4.60;82.73;99348.41;1734422;80;20482;-61
2021/03/01 14:26:13;;;;;;;;;;;;;;;4.54;82.82;99348.27;1728172;81;20616;-63
2021/03/01 14:28:43;;;;;;;;;;;;;;;4.50;81.11;99351.67;1731693;81;20430;-61
2021/03/01 14:31:10;;;;;;;;;;;;;;;4.46;81.48;99352.19;1728937;81;21830;-61
2021/03/01 14:33:38;;;;;;;;;;;;;;;4.41;81.21;99347.45;1725359;81;20522;-63
2021/03/01 14:36:08;;;;;;;;;;;;;;;4.42;81.28;99351.69;1736059;80;20572;-60
2021/03/01 14:38:36;;;;;;;;;;;;;;;4.43;81.52;99349.91;1727632;82;20515;-59
2021/03/01 14:41:06;;;;;;;;;;;;;;;4.42;81.74;99353.48;1728597;81;20680;-62
2021/03/01 14:43:35;;;;;;;;;;;;;;;4.43;81.81;99346.00;1736571;81;21912;-60
2021/03/01 14:46:04;;;;;;;;;;;;;;;4.43;82.18;99350.72;1727912;81;20498;-61
2021/03/01 14:48:33;;;;;;;;;;;;;;;4.46;82.64;99350.89;1729315;80;20506;-59
2021/03/01 14:51:01;;;;;;;;;;;;;;;4.48;81.43;99347.12;1738286;81;20567;-58
2021/03/01 14:53:29;;;;;;;;;;;;;;;4.48;81.45;99351.52;1737567;81;20506;-59
2021/03/01 14:55:57;;;;;;;;;;;;;;;4.47;82.01;99349.39;1728831;81;21868;-57
2021/03/01 14:58:25;;;;;;;;;;;;;;;4.45;82.25;99348.77;1727339;82;20582;-59
2021/03/01 15:00:53;;;;;;;;;;;;;;;4.46;81.45;99343.89;1734778;81;20418;-58
2021/03/01 15:03:22;;;;;;;;;;;;;;;4.46;81.04;99345.68;1736614;81;20621;-58
2021/03/01 15:05:57;;;;;;;;;;;;;;;4.44;80.84;99353.65;1741120;81;20610;-57
